»·PEaware :: AAL246 KSFO-KSBA

AAL246 :: KSFO-KSBA

FLIGHT INFORMATION

Flight Status: Arrived
Operator:
American Airlines
More flights by this operator :: More flights under this callsign
Pilot: Alex S. (7186)
Aircraft: MCDONNELL-DOUGLAS MD-88
(MD88)
More flights by this aircraft type
Origin: KSFO San Francisco Intl
United States
Destination: KSBA Santa Barbara Mun
United States
More flights between these airports :: More routes between these airports
Route: +GAPP7 WAGES SNS J88 RZS
File this flight plan on PilotEdge
Remarks:
Altitude:
(Current/Filed)
27,000ft
Speed:
(Current/Filed)
462kts
Departed: 01-Feb-19 09:16 PM
Arrived: 01-Feb-19 10:00 PM
Distance/Time
Traveled:
228nm/0:44
Distance/Time
To Go:
Arrived

Flight Plot

Page will automatically refresh every two minutes.

Flight plan parsing failed; only flown route is shown


Map Options




Map Legend


Flown Route
Filed Route
Departure Airport
Arrival Airport
Navaid (VOR, NDB)
Fix

Horizontal Profiles

Position Reports

Time Latitude Longitude Heading Altitude Ground
Speed
01-Feb-19 20:33 37.618367 -122.382045 139 19ft 0kts
01-Feb-19 20:34 37.618367 -122.382045 139 19ft 0kts
01-Feb-19 20:35 37.618367 -122.382045 139 19ft 0kts
01-Feb-19 20:36 37.618367 -122.382045 139 19ft 0kts
01-Feb-19 20:36 37.618367 -122.382045 139 19ft 0kts
01-Feb-19 20:38 37.618367 -122.382045 139 19ft 0kts
01-Feb-19 20:39 37.618367 -122.382045 139 19ft 0kts
01-Feb-19 20:40 37.618367 -122.382045 139 19ft 0kts
01-Feb-19 20:40 37.618367 -122.382045 139 19ft 0kts
01-Feb-19 20:41 37.618367 -122.382045 139 19ft 0kts
01-Feb-19 20:43 37.618367 -122.382045 139 18ft 0kts
01-Feb-19 20:43 37.618367 -122.382045 139 18ft 0kts
01-Feb-19 20:44 37.618367 -122.382045 139 18ft 0kts
01-Feb-19 20:45 37.618367 -122.382045 139 18ft 0kts
01-Feb-19 20:46 37.618367 -122.382045 139 18ft 0kts
01-Feb-19 20:47 37.618367 -122.382045 139 18ft 0kts
01-Feb-19 20:48 37.618367 -122.382045 139 18ft 0kts
01-Feb-19 20:49 37.618367 -122.382045 139 18ft 0kts
01-Feb-19 20:50 37.618367 -122.382045 139 18ft 0kts
01-Feb-19 20:51 37.618367 -122.382045 139 18ft 0kts
01-Feb-19 20:52 37.618367 -122.382045 139 18ft 0kts
01-Feb-19 20:53 37.618367 -122.382045 139 18ft 0kts
01-Feb-19 20:54 37.618367 -122.382045 139 18ft 0kts
01-Feb-19 20:55 37.618367 -122.382045 139 18ft 0kts
01-Feb-19 20:56 37.618367 -122.382045 139 18ft 0kts
01-Feb-19 20:57 37.618367 -122.382045 139 18ft 0kts
01-Feb-19 20:58 37.618367 -122.382045 139 18ft 0kts
01-Feb-19 20:59 37.618367 -122.382045 139 18ft 0kts
01-Feb-19 21:00 37.618367 -122.382045 139 18ft 0kts
01-Feb-19 21:01 37.618367 -122.382045 139 18ft 0kts
01-Feb-19 21:02 37.618367 -122.382045 139 18ft 0kts
01-Feb-19 21:03 37.618367 -122.382045 139 18ft 0kts
01-Feb-19 21:04 37.618665 -122.382477 103 18ft 2kts
01-Feb-19 21:05 37.618557 -122.383001 42 18ft 2kts
01-Feb-19 21:06 37.618818 -122.382733 28 18ft 0kts
01-Feb-19 21:07 37.618818 -122.382733 28 18ft 0kts
01-Feb-19 21:08 37.618818 -122.382733 28 18ft 0kts
01-Feb-19 21:09 37.618818 -122.382733 28 18ft 0kts
01-Feb-19 21:10 37.619057 -122.382575 27 18ft 0kts
01-Feb-19 21:11 37.620770 -122.384649 298 18ft 17kts
01-Feb-19 21:12 37.623069 -122.389896 316 18ft 11kts
01-Feb-19 21:13 37.624805 -122.392526 297 18ft 8kts
01-Feb-19 21:14 37.626114 -122.392952 64 18ft 7kts
01-Feb-19 21:15 37.619376 -122.376717 118 19ft 144kts
01-Feb-19 21:16 37.602122 -122.322998 109 1945ft 166kts
01-Feb-19 21:17 37.578322 -122.269123 149 3794ft 188kts
01-Feb-19 21:18 37.527454 -122.225646 149 5812ft 237kts
01-Feb-19 21:19 37.470936 -122.174831 150 8693ft 256kts
01-Feb-19 21:20 37.410003 -122.119568 150 10796ft 294kts
01-Feb-19 21:21 37.339481 -122.055265 150 12972ft 321kts
01-Feb-19 21:22 37.266317 -121.988509 150 15188ft 334kts
01-Feb-19 21:23 37.189947 -121.918794 150 17196ft 346kts
01-Feb-19 21:24 37.109984 -121.845791 150 19010ft 356kts
01-Feb-19 21:25 37.028103 -121.770983 150 20631ft 365kts
01-Feb-19 21:26 36.936816 -121.713535 168 22076ft 362kts
01-Feb-19 21:27 36.838919 -121.674728 166 23435ft 371kts
01-Feb-19 21:28 36.738400 -121.633785 167 24711ft 378kts
01-Feb-19 21:29 36.638315 -121.582457 153 25831ft 396kts
01-Feb-19 21:30 36.546491 -121.500362 150 26757ft 399kts
01-Feb-19 21:31 36.454553 -121.419702 151 26776ft 402kts
01-Feb-19 21:32 36.361570 -121.339658 152 26768ft 402kts
01-Feb-19 21:33 36.269163 -121.259508 151 26771ft 410kts
01-Feb-19 21:34 36.174496 -121.177279 151 26771ft 420kts
01-Feb-19 21:35 36.077978 -121.093386 151 26851ft 421kts
01-Feb-19 21:36 35.980641 -121.008590 151 26848ft 428kts
01-Feb-19 21:37 35.882039 -120.925569 152 26857ft 430kts
01-Feb-19 21:38 35.784475 -120.842408 151 26859ft 427kts
01-Feb-19 21:39 35.685848 -120.758226 151 26858ft 429kts
01-Feb-19 21:40 35.586180 -120.673096 151 25105ft 433kts
01-Feb-19 21:41 35.486541 -120.587896 150 23870ft 430kts
01-Feb-19 21:42 35.386345 -120.502197 150 23867ft 438kts
01-Feb-19 21:43 35.284800 -120.417534 151 23526ft 442kts
01-Feb-19 21:44 35.183719 -120.333371 151 21470ft 423kts
01-Feb-19 21:45 35.086966 -120.252794 151 19447ft 413kts
01-Feb-19 21:46 34.991245 -120.173032 150 16943ft 416kts
01-Feb-19 21:47 34.899679 -120.096650 150 14633ft 394kts
01-Feb-19 21:48 34.805748 -120.063424 191 12562ft 327kts
01-Feb-19 21:49 34.721693 -120.081071 192 10534ft 279kts
01-Feb-19 21:50 34.646034 -120.097868 192 8764ft 272kts
01-Feb-19 21:51 34.575023 -120.115246 192 7241ft 250kts
01-Feb-19 21:52 34.506811 -120.133719 192 6257ft 245kts
01-Feb-19 21:53 34.443633 -120.152126 181 4980ft 215kts
01-Feb-19 21:54 34.422124 -120.095055 95 3931ft 219kts
01-Feb-19 21:55 34.423826 -120.024833 94 2803ft 189kts
01-Feb-19 21:56 34.425138 -119.966719 95 1817ft 145kts
01-Feb-19 21:57 34.426076 -119.921108 95 1101ft 131kts
01-Feb-19 21:58 34.427044 -119.877003 94 432ft 128kts
01-Feb-19 21:59 34.427725 -119.842376 88 18ft 13kts
01-Feb-19 22:00 34.427827 -119.839004 95 18ft 13kts
01-Feb-19 22:01 34.425504 -119.837821 97 18ft 4kts
01-Feb-19 22:02 34.425518 -119.837355 145 18ft 0kts
01-Feb-19 22:03 34.425404 -119.837261 145 18ft 0kts
01-Feb-19 22:04 34.425404 -119.837261 145 18ft 0kts

Navigation Log

Ident Type
Flight plan parsing failed, navigation log unavailable